Paradise, CA

6:20 AM PST on January 24, 2017 (GMT -0800)
Valley View and Reeds Court, P-Town | | Change Station
Active Advisory: Hydrologic Statement

Elev 1647 ft 39.76 °N, 121.64 °W | Updated 53 seconds ago

Ice Pellets
Ice Pellets
34.2 °F
Feels Like 34 °F
N
0.0
Wind Variable Wind from East

Today
High -- | Low -- °F
--% Chance of Precip.
Yesterday
High -- | Low -- °F
Precip. -- in
Pressure 30.05 in
Visibility 5.0 miles
Clouds Overcast 3000 ft
Windchill 34 °F
Dew Point 33 °F
Humidity 96%
Rainfall 0.00 in
Snow Depth Not available.
7:20 AM 5:17 PM
Waning Crescent, 11% visible
METAR KCIC 241335Z AUTO 00000KT 5SM OVC030 05/04 A3005 RMK AO1 P0002
Pressure 30.05 in
Visibility 5.0 miles
Clouds Overcast 3000 ft
Windchill 34 °F
Dew Point 33 °F
Humidity 96%
Rainfall 0.00 in
Snow Depth Not available.
7:20 AM 5:17 PM
Waning Crescent, 11% visible
METAR KCIC 241335Z AUTO 00000KT 5SM OVC030 05/04 A3005 RMK AO1 P0002

Get Your Daily Forecast Email!

Thanks for signing up!

Be on the lookout for a verification email in your inbox.

You'll start receiving the daily forecast at 8 AM.

×

10-Day Weather Forecast

Almanac

Astronomy

Jan. 24, 2017 Rise Set
Actual Time
Civil Twilight
Nautical Twilight
Astronomical Twilight
Moon
Length of Visible Light
Length of Day
Tomorrow will be .
, % of the Moon is Illuminated

Today's Extremes

State Highs State Lows

Community

WunderPhotos

Upload Photos

1,962,540 photos uploaded!

WunderBlog® & News

Nearby

Air Quality

  Air Quality AQ Index Pollutant
Not available.

Snow Depth

Station Depth Elevation

Earthquake Activity

City Distance Mag. Time & Date
Minimum magnitude displayed is 2.5.

Coastal Water Temperatures

Place Temperature

Stations

Nearby Weather Stations

Station Location Temp. Windchill Dew Point Humidity Wind Precip. Elev Updated Type
                   

Watches & Warnings

Hydrologic Statement
Issued: 3:07 PM PST Jan. 23, 2017 – National Weather Service

Forecast information for
Sacramento River at Butte City.
* At 2:30 PM Monday the stage was 89.5 feet.
* Forecast to fall below monitor stage of 89.0 ft early tomorrow
morning then forecast to recede to near 87.0 ft tomorrow afternoon.
* Flood stage 97.2 ft
* monitor stage 89.0 ft


&&

Lat... Lon 3955 12209 3956 12189 3938 12191 3938 12211